Time;durP1;ratioP1;P1;durP2;ratioP2;P2;SDS_P1;SDS_P2;PMS_P1;PMS_P2;Temp;Humidity;BMP_temperature;BMP_pressure;BME280_temperature;BME280_humidity;BME280_pressure;Samples;Min_cycle;Max_cycle;Signal;HPM_P1;HPM_P2
2021/07/14 00:02:21;;;;;;;;;;;17.90;99.90;;;;;;5093780;28;19908;-76
2021/07/14 00:04:47;;;;;;;;;;;18.00;99.90;;;;;;5093777;28;19962;-76
2021/07/14 00:07:12;;;;;;;;;;;17.90;99.90;;;;;;5093875;28;20007;-76
2021/07/14 00:09:38;;;;;;;;;;;17.80;99.90;;;;;;5093597;28;19962;-77
2021/07/14 00:12:07;;;;;;;;;;;17.80;99.90;;;;;;5092343;28;19912;-75
2021/07/14 00:22:34;;;;;;;;;;;17.90;99.90;;;;;;5093354;28;19935;-76
2021/07/14 00:25:00;;;;;;;;;;;17.90;99.90;;;;;;5093820;28;20003;-76
2021/07/14 00:27:26;;;;;;;;;;;18.00;99.90;;;;;;5092306;28;19957;-75
2021/07/14 00:29:56;;;;;;;;;;;17.90;99.90;;;;;;5093531;28;20322;-76
2021/07/14 00:32:25;;;;;;;;;;;17.90;99.90;;;;;;5094863;28;19912;-74
2021/07/14 00:34:51;;;;;;;;;;;17.90;99.90;;;;;;5096243;28;20002;-76
2021/07/14 00:37:18;;;;;;;;;;;17.80;99.90;;;;;;5097538;28;19944;-74
2021/07/14 00:39:44;;;;;;;;;;;17.90;99.90;;;;;;5097619;28;19912;-76
2021/07/14 00:42:10;;;;;;;;;;;17.90;99.90;;;;;;5097424;28;19943;-75
2021/07/14 00:44:35;;;;;;;;;;;17.80;99.90;;;;;;5097368;28;19909;-75
2021/07/14 00:47:01;;;;;;;;;;;17.80;99.90;;;;;;5097340;28;20288;-74
2021/07/14 00:49:28;;;;;;;;;;;17.70;99.90;;;;;;5097666;28;20386;-74
2021/07/14 00:51:54;;;;;;;;;;;17.80;99.90;;;;;;5097501;28;20006;-75
2021/07/14 00:54:20;;;;;;;;;;;17.80;99.90;;;;;;5097145;28;20448;-76
2021/07/14 00:56:46;;;;;;;;;;;17.90;99.90;;;;;;5097234;28;19908;-76
2021/07/14 00:59:12;;;;;;;;;;;17.90;99.90;;;;;;5095806;28;19915;-75
2021/07/14 01:01:37;;;;;;;;;;;17.80;99.90;;;;;;5095803;28;19912;-75
2021/07/14 01:04:09;;;;;;;;;;;17.70;99.90;;;;;;5097220;28;20387;-75
2021/07/14 01:06:41;;;;;;;;;;;17.70;99.90;;;;;;5097076;28;19908;-75
2021/07/14 01:09:08;;;;;;;;;;;17.80;99.90;;;;;;5097052;28;19912;-77
2021/07/14 01:11:35;;;;;;;;;;;18.00;99.90;;;;;;5096376;28;20372;-75
2021/07/14 01:14:23;;;;;;;;;;;17.90;99.90;;;;;;5095532;28;19912;-75
2021/07/14 01:17:01;;;;;;;;;;;17.90;99.90;;;;;;5096990;28;19908;-75
2021/07/14 01:19:27;;;;;;;;;;;17.90;99.90;;;;;;5096789;28;20372;-75
2021/07/14 01:21:56;;;;;;;;;;;17.90;99.90;;;;;;5096655;28;19914;-77
2021/07/14 01:24:29;;;;;;;;;;;17.90;99.90;;;;;;5096733;28;20392;-76
2021/07/14 01:27:05;;;;;;;;;;;17.80;99.90;;;;;;5096743;28;19915;-76
2021/07/14 01:29:33;;;;;;;;;;;17.80;99.90;;;;;;5096743;28;19980;-76
2021/07/14 01:32:00;;;;;;;;;;;17.70;99.90;;;;;;5096434;28;19923;-75
2021/07/14 01:34:27;;;;;;;;;;;17.80;99.90;;;;;;5096897;28;20322;-74
2021/07/14 01:36:54;;;;;;;;;;;17.70;99.90;;;;;;5096439;28;19908;-74
2021/07/14 01:39:20;;;;;;;;;;;17.70;99.90;;;;;;5096475;28;20004;-74
2021/07/14 01:41:46;;;;;;;;;;;17.60;99.90;;;;;;5096246;28;19998;-76
2021/07/14 01:44:13;;;;;;;;;;;17.50;99.90;;;;;;5095770;28;19908;-75
2021/07/14 01:46:39;;;;;;;;;;;17.50;99.90;;;;;;5096177;28;19989;-76
2021/07/14 01:49:09;;;;;;;;;;;17.50;99.90;;;;;;5096148;28;20384;-75
2021/07/14 01:51:41;;;;;;;;;;;17.40;99.90;;;;;;5094711;28;20257;-76
2021/07/14 01:54:07;;;;;;;;;;;17.40;99.90;;;;;;5096416;28;19908;-74
2021/07/14 01:56:34;;;;;;;;;;;17.50;99.90;;;;;;5096021;28;19914;-77
2021/07/14 01:59:00;;;;;;;;;;;17.50;99.90;;;;;;5096084;28;19994;-77
2021/07/14 02:01:26;;;;;;;;;;;17.30;99.90;;;;;;5094653;28;19939;-73
2021/07/14 02:04:30;;;;;;;;;;;17.30;99.90;;;;;;5096422;28;19908;-76
2021/07/14 02:06:42;;;;;;;;;;;17.30;99.90;;;;;;5095550;28;19912;-74
2021/07/14 02:09:09;;;;;;;;;;;17.30;99.90;;;;;;5095761;28;19919;-75
2021/07/14 02:11:35;;;;;;;;;;;17.20;99.90;;;;;;5095286;28;20023;-76
2021/07/14 02:14:01;;;;;;;;;;;17.20;99.90;;;;;;5095677;28;19958;-76
2021/07/14 02:16:27;;;;;;;;;;;17.10;99.90;;;;;;5095802;28;20325;-76
2021/07/14 02:18:56;;;;;;;;;;;17.20;99.90;;;;;;5095874;28;19915;-75
2021/07/14 02:21:23;;;;;;;;;;;17.20;99.90;;;;;;5095583;28;20444;-75
2021/07/14 02:23:48;;;;;;;;;;;17.10;99.90;;;;;;5095389;28;20387;-75
2021/07/14 02:26:14;;;;;;;;;;;17.10;99.90;;;;;;5095419;28;19915;-75
2021/07/14 02:28:39;;;;;;;;;;;17.10;99.90;;;;;;5095395;28;19908;-75
2021/07/14 02:31:05;;;;;;;;;;;17.10;99.90;;;;;;5095378;28;20394;-75
2021/07/14 02:33:31;;;;;;;;;;;17.10;99.90;;;;;;5094017;28;19940;-75
2021/07/14 02:36:00;;;;;;;;;;;17.10;99.90;;;;;;5095440;28;19908;-76
2021/07/14 02:38:32;;;;;;;;;;;17.00;99.90;;;;;;5095185;28;19915;-75
2021/07/14 02:41:00;;;;;;;;;;;17.00;99.90;;;;;;5095113;28;19919;-76
2021/07/14 02:43:28;;;;;;;;;;;17.00;99.90;;;;;;5095142;28;19908;-74
2021/07/14 02:45:58;;;;;;;;;;;17.00;99.90;;;;;;5095079;28;19912;-73
2021/07/14 02:48:25;;;;;;;;;;;17.10;99.90;;;;;;5095030;28;19915;-76
2021/07/14 02:50:52;;;;;;;;;;;17.20;99.90;;;;;;5095057;28;19912;-76
2021/07/14 02:53:20;;;;;;;;;;;17.20;99.90;;;;;;5094924;28;19960;-75
2021/07/14 02:55:50;;;;;;;;;;;17.10;99.90;;;;;;5092767;28;19961;-76
2021/07/14 02:58:16;;;;;;;;;;;17.00;99.90;;;;;;5095013;28;19908;-76
2021/07/14 03:00:43;;;;;;;;;;;16.90;99.90;;;;;;5094907;28;19912;-75
2021/07/14 03:03:09;;;;;;;;;;;17.00;99.90;;;;;;5094695;28;20281;-76
2021/07/14 03:05:35;;;;;;;;;;;17.00;99.90;;;;;;5094680;28;20003;-75
2021/07/14 03:08:03;;;;;;;;;;;17.00;99.90;;;;;;5094669;28;19908;-76
2021/07/14 03:10:28;;;;;;;;;;;17.00;99.90;;;;;;5094283;28;19920;-76
2021/07/14 03:12:55;;;;;;;;;;;17.10;99.90;;;;;;5094545;28;19915;-76
2021/07/14 03:15:21;;;;;;;;;;;17.00;99.90;;;;;;5094735;28;19908;-75
2021/07/14 03:17:48;;;;;;;;;;;17.10;99.90;;;;;;5094655;28;20372;-75
2021/07/14 03:20:15;;;;;;;;;;;17.10;99.90;;;;;;5094519;28;19915;-76
2021/07/14 03:22:45;;;;;;;;;;;17.10;99.90;;;;;;5094472;28;19935;-75
2021/07/14 03:25:11;;;;;;;;;;;17.20;99.90;;;;;;5094587;28;19998;-76
2021/07/14 03:27:38;;;;;;;;;;;17.20;99.90;;;;;;5094489;28;19918;-76
2021/07/14 03:30:04;;;;;;;;;;;17.20;99.90;;;;;;5094144;28;19957;-76
2021/07/14 03:32:30;;;;;;;;;;;17.10;99.90;;;;;;5094760;28;19909;-75
2021/07/14 03:34:55;;;;;;;;;;;17.10;99.90;;;;;;5094333;28;19908;-76
2021/07/14 03:37:21;;;;;;;;;;;17.10;99.90;;;;;;5094295;28;19909;-75
2021/07/14 03:39:47;;;;;;;;;;;17.20;99.90;;;;;;5094248;28;20334;-75
2021/07/14 03:42:15;;;;;;;;;;;17.20;99.90;;;;;;5094267;28;19915;-76
2021/07/14 03:44:41;;;;;;;;;;;17.20;99.90;;;;;;5094183;28;20341;-76
2021/07/14 03:47:08;;;;;;;;;;;17.20;99.90;;;;;;5094109;28;19917;-74
2021/07/14 03:49:34;;;;;;;;;;;17.10;99.90;;;;;;5094067;28;19908;-75
2021/07/14 03:52:00;;;;;;;;;;;17.20;99.90;;;;;;5092693;28;19912;-74
2021/07/14 03:54:27;;;;;;;;;;;17.30;99.90;;;;;;5094019;28;19915;-76
2021/07/14 03:56:53;;;;;;;;;;;17.30;99.90;;;;;;5093988;28;20341;-76
2021/07/14 03:59:19;;;;;;;;;;;17.30;99.90;;;;;;5093874;28;19995;-76
2021/07/14 04:01:46;;;;;;;;;;;17.30;99.90;;;;;;5094140;28;19991;-75
2021/07/14 04:04:11;;;;;;;;;;;17.30;99.90;;;;;;5093937;28;19994;-75
2021/07/14 04:06:37;;;;;;;;;;;17.20;99.90;;;;;;5093688;28;20406;-75
2021/07/14 04:09:09;;;;;;;;;;;17.20;99.90;;;;;;5093832;28;19995;-74
2021/07/14 04:11:34;;;;;;;;;;;17.30;99.90;;;;;;5093469;28;20022;-75
2021/07/14 04:14:00;;;;;;;;;;;17.30;99.90;;;;;;5093728;28;20328;-76
2021/07/14 04:16:27;;;;;;;;;;;17.40;99.90;;;;;;5093710;28;19908;-76
2021/07/14 04:18:53;;;;;;;;;;;17.30;99.90;;;;;;5093905;28;19908;-76
2021/07/14 04:21:18;;;;;;;;;;;17.40;99.90;;;;;;5092433;28;20424;-77
2021/07/14 04:23:44;;;;;;;;;;;17.20;99.90;;;;;;5093751;28;19908;-75
2021/07/14 04:26:09;;;;;;;;;;;17.30;99.90;;;;;;5093688;28;19908;-76
2021/07/14 04:28:35;;;;;;;;;;;17.40;99.90;;;;;;5093653;28;20398;-77
2021/07/14 04:31:01;;;;;;;;;;;17.40;99.90;;;;;;5093936;28;19912;-76
2021/07/14 04:33:26;;;;;;;;;;;17.40;99.90;;;;;;5092304;28;19908;-76
2021/07/14 04:35:52;;;;;;;;;;;17.40;99.90;;;;;;5093682;28;19912;-76
2021/07/14 04:38:17;;;;;;;;;;;17.50;99.90;;;;;;5093551;28;19912;-75
2021/07/14 04:40:43;;;;;;;;;;;17.40;99.90;;;;;;5093529;28;20257;-76
2021/07/14 04:43:10;;;;;;;;;;;17.50;99.90;;;;;;5093508;28;20261;-75
2021/07/14 04:45:36;;;;;;;;;;;17.50;99.90;;;;;;5093881;28;19908;-76
2021/07/14 04:48:02;;;;;;;;;;;17.50;99.90;;;;;;5093437;28;19914;-75
2021/07/14 04:50:29;;;;;;;;;;;17.50;99.90;;;;;;5093475;28;19966;-75
2021/07/14 04:52:54;;;;;;;;;;;17.50;99.90;;;;;;5093422;28;19912;-75
2021/07/14 04:55:20;;;;;;;;;;;17.50;99.90;;;;;;5093405;28;19958;-75
2021/07/14 04:57:45;;;;;;;;;;;17.60;99.90;;;;;;5093755;28;19997;-73
2021/07/14 05:00:11;;;;;;;;;;;17.60;99.90;;;;;;5092059;28;19908;-76
2021/07/14 05:02:37;;;;;;;;;;;17.60;99.90;;;;;;5093406;28;19912;-75
2021/07/14 05:05:03;;;;;;;;;;;17.70;99.90;;;;;;5093259;28;20391;-75
2021/07/14 05:07:30;;;;;;;;;;;17.80;99.90;;;;;;5093243;28;19912;-75
2021/07/14 05:09:56;;;;;;;;;;;17.70;99.90;;;;;;5091726;28;20338;-75
2021/07/14 05:12:22;;;;;;;;;;;17.80;99.90;;;;;;5093366;28;19913;-75
2021/07/14 05:14:48;;;;;;;;;;;17.70;99.90;;;;;;5093340;28;19958;-75
2021/07/14 05:17:13;;;;;;;;;;;17.70;99.90;;;;;;5093227;28;19909;-75
2021/07/14 05:19:39;;;;;;;;;;;17.70;99.90;;;;;;5096365;28;20285;-75
2021/07/14 05:22:04;;;;;;;;;;;17.70;99.90;;;;;;5096827;28;19908;-75
2021/07/14 05:24:30;;;;;;;;;;;17.70;99.90;;;;;;5095459;28;20003;-76
2021/07/14 05:26:56;;;;;;;;;;;17.80;99.90;;;;;;5096857;28;19908;-77
2021/07/14 05:29:21;;;;;;;;;;;17.80;99.90;;;;;;5096723;28;19908;-76
2021/07/14 05:31:47;;;;;;;;;;;17.70;99.90;;;;;;5096556;28;19916;-75
2021/07/14 05:34:12;;;;;;;;;;;17.70;99.90;;;;;;5096614;28;20399;-75
2021/07/14 05:36:38;;;;;;;;;;;17.70;99.90;;;;;;5096602;28;19908;-74
2021/07/14 05:39:04;;;;;;;;;;;17.70;99.90;;;;;;5095255;28;19947;-74
2021/07/14 05:41:29;;;;;;;;;;;17.80;99.90;;;;;;5096464;28;19914;-75
2021/07/14 05:43:55;;;;;;;;;;;17.90;99.90;;;;;;5096574;28;19908;-76
2021/07/14 05:46:21;;;;;;;;;;;18.00;99.90;;;;;;5096501;28;19965;-76
2021/07/14 05:48:48;;;;;;;;;;;18.10;99.90;;;;;;5096493;28;20323;-75
2021/07/14 05:51:14;;;;;;;;;;;18.20;99.70;;;;;;5096149;28;20395;-75
2021/07/14 05:53:39;;;;;;;;;;;18.10;99.50;;;;;;5096207;28;19908;-75
2021/07/14 05:56:05;;;;;;;;;;;18.10;99.90;;;;;;5096209;28;19991;-75
2021/07/14 05:58:31;;;;;;;;;;;18.10;99.90;;;;;;5096064;28;20364;-76
2021/07/14 06:00:56;;;;;;;;;;;18.30;99.60;;;;;;5096289;28;19953;-75
2021/07/14 06:03:22;;;;;;;;;;;18.30;99.40;;;;;;5096189;28;19909;-75
2021/07/14 06:05:48;;;;;;;;;;;18.20;99.40;;;;;;5096152;28;19912;-75
2021/07/14 06:08:13;;;;;;;;;;;18.30;99.20;;;;;;5096069;28;20006;-76
2021/07/14 06:10:39;;;;;;;;;;;18.30;99.10;;;;;;5095583;28;20415;-76
2021/07/14 06:13:04;;;;;;;;;;;18.30;99.10;;;;;;5095864;28;20294;-76
2021/07/14 06:15:30;;;;;;;;;;;18.30;98.80;;;;;;5095839;28;20380;-77
2021/07/14 06:17:57;;;;;;;;;;;18.20;98.90;;;;;;5095803;28;20273;-76
2021/07/14 06:20:22;;;;;;;;;;;18.30;98.90;;;;;;5095948;28;20439;-74
2021/07/14 06:22:48;;;;;;;;;;;18.40;98.70;;;;;;5095550;28;19947;-76
2021/07/14 06:25:14;;;;;;;;;;;18.40;98.70;;;;;;5095872;28;19947;-77
2021/07/14 06:27:43;;;;;;;;;;;18.60;98.50;;;;;;5095535;28;19915;-76
2021/07/14 06:30:10;;;;;;;;;;;18.50;98.50;;;;;;5095422;28;20365;-75
2021/07/14 06:32:36;;;;;;;;;;;18.40;98.60;;;;;;5095447;28;19990;-76
2021/07/14 06:35:03;;;;;;;;;;;18.60;98.50;;;;;;5095598;28;19964;-76
2021/07/14 06:37:28;;;;;;;;;;;18.60;98.20;;;;;;5095459;28;19953;-75
2021/07/14 06:39:54;;;;;;;;;;;18.60;98.10;;;;;;5095306;28;20006;-77
2021/07/14 06:42:19;;;;;;;;;;;18.70;97.90;;;;;;5095523;28;20287;-77
2021/07/14 06:44:45;;;;;;;;;;;18.80;97.70;;;;;;5095258;28;19915;-75
2021/07/14 06:47:11;;;;;;;;;;;18.80;97.50;;;;;;5095257;28;19958;-75
2021/07/14 06:49:36;;;;;;;;;;;18.80;97.50;;;;;;5095105;28;19912;-74
2021/07/14 06:52:02;;;;;;;;;;;18.80;97.40;;;;;;5093770;28;19934;-77
2021/07/14 06:54:28;;;;;;;;;;;18.80;97.50;;;;;;5095408;28;19995;-75
2021/07/14 06:56:53;;;;;;;;;;;18.70;97.70;;;;;;5095131;28;19912;-75
2021/07/14 06:59:19;;;;;;;;;;;18.60;97.70;;;;;;5094922;28;19908;-76
2021/07/14 07:01:45;;;;;;;;;;;18.60;98.00;;;;;;5094868;28;20399;-75
2021/07/14 07:04:10;;;;;;;;;;;18.60;97.90;;;;;;5095210;28;19915;-76
2021/07/14 07:06:36;;;;;;;;;;;18.60;97.70;;;;;;5095090;28;19908;-75
2021/07/14 07:09:04;;;;;;;;;;;18.70;97.60;;;;;;5093268;28;20007;-75
2021/07/14 07:11:34;;;;;;;;;;;18.70;97.60;;;;;;5094407;28;19959;-76
2021/07/14 07:14:00;;;;;;;;;;;18.80;97.10;;;;;;5093426;28;19908;-76
2021/07/14 07:16:25;;;;;;;;;;;18.80;97.30;;;;;;5094713;28;19916;-75
2021/07/14 07:18:51;;;;;;;;;;;18.90;97.20;;;;;;5094613;28;19908;-75
2021/07/14 07:21:17;;;;;;;;;;;19.10;96.60;;;;;;5094547;28;19908;-75
2021/07/14 07:23:45;;;;;;;;;;;19.10;96.50;;;;;;5094899;28;19911;-76
2021/07/14 07:26:12;;;;;;;;;;;19.10;96.70;;;;;;5094629;28;19908;-76
2021/07/14 07:28:41;;;;;;;;;;;19.20;96.30;;;;;;5094362;28;19965;-75
2021/07/14 07:31:09;;;;;;;;;;;19.20;96.30;;;;;;5094404;28;20288;-77
2021/07/14 07:33:35;;;;;;;;;;;19.30;96.10;;;;;;5094307;28;19948;-75
2021/07/14 07:36:01;;;;;;;;;;;19.30;95.90;;;;;;5094301;28;19908;-75
2021/07/14 07:38:27;;;;;;;;;;;19.40;95.90;;;;;;5094554;28;19909;-75
2021/07/14 07:40:54;;;;;;;;;;;19.50;95.70;;;;;;5094346;28;19914;-76
2021/07/14 07:43:20;;;;;;;;;;;19.70;95.50;;;;;;5092906;28;19915;-76
2021/07/14 07:45:46;;;;;;;;;;;19.80;95.20;;;;;;5094137;28;20002;-76
2021/07/14 07:48:11;;;;;;;;;;;19.80;94.90;;;;;;5094464;28;19954;-75
2021/07/14 07:50:37;;;;;;;;;;;19.90;94.80;;;;;;5093997;28;19923;-76
2021/07/14 07:53:03;;;;;;;;;;;20.00;94.80;;;;;;5094191;28;19951;-75
2021/07/14 07:55:29;;;;;;;;;;;20.00;94.80;;;;;;5093960;28;19912;-75
2021/07/14 07:57:54;;;;;;;;;;;20.20;94.40;;;;;;5094414;28;20003;-76
2021/07/14 08:00:20;;;;;;;;;;;20.50;94.30;;;;;;5093955;28;19908;-75
2021/07/14 08:02:46;;;;;;;;;;;20.70;93.80;;;;;;5093957;28;19908;-77
2021/07/14 08:05:12;;;;;;;;;;;20.60;93.60;;;;;;5094028;28;19908;-77
2021/07/14 08:07:38;;;;;;;;;;;20.60;93.60;;;;;;5093868;28;19951;-76
2021/07/14 08:10:04;;;;;;;;;;;20.70;93.80;;;;;;5093589;28;19927;-74
2021/07/14 08:12:30;;;;;;;;;;;20.80;93.50;;;;;;5093903;28;19912;-76
2021/07/14 08:14:55;;;;;;;;;;;20.80;93.20;;;;;;5093806;28;19915;-77
2021/07/14 08:17:21;;;;;;;;;;;20.80;92.80;;;;;;5093752;28;19955;-75
2021/07/14 08:19:47;;;;;;;;;;;20.80;93.00;;;;;;5093715;28;19915;-76
2021/07/14 08:22:13;;;;;;;;;;;21.00;92.80;;;;;;5093875;28;19914;-74
2021/07/14 08:24:39;;;;;;;;;;;21.20;92.50;;;;;;5093636;28;20250;-75
2021/07/14 08:27:04;;;;;;;;;;;21.40;91.90;;;;;;5093963;28;19908;-77
2021/07/14 08:29:30;;;;;;;;;;;21.20;92.10;;;;;;5093602;28;19974;-77
2021/07/14 08:31:56;;;;;;;;;;;21.30;92.40;;;;;;5093522;28;19916;-76
2021/07/14 08:34:21;;;;;;;;;;;21.60;91.90;;;;;;5093917;28;20424;-76
2021/07/14 08:36:47;;;;;;;;;;;21.80;91.30;;;;;;5092281;28;19908;-75
2021/07/14 08:39:13;;;;;;;;;;;21.60;90.90;;;;;;5093695;28;19912;-75
2021/07/14 08:41:43;;;;;;;;;;;21.80;91.30;;;;;;5092282;28;20011;-75
2021/07/14 08:44:10;;;;;;;;;;;21.50;91.40;;;;;;5093827;28;19908;-76
2021/07/14 08:46:36;;;;;;;;;;;21.30;91.70;;;;;;5093784;28;19909;-77
2021/07/14 08:49:05;;;;;;;;;;;21.00;92.50;;;;;;5093464;28;19908;-77
2021/07/14 08:51:35;;;;;;;;;;;21.00;92.60;;;;;;5092049;28;19912;-76
2021/07/14 08:54:01;;;;;;;;;;;20.80;93.20;;;;;;5095964;28;20307;-76
2021/07/14 08:56:27;;;;;;;;;;;20.90;92.90;;;;;;5097442;28;19908;-76
2021/07/14 08:58:52;;;;;;;;;;;20.90;93.20;;;;;;5097305;28;19908;-76
2021/07/14 09:01:18;;;;;;;;;;;21.00;92.90;;;;;;5097617;28;19912;-76
2021/07/14 09:03:43;;;;;;;;;;;20.70;93.20;;;;;;5097154;28;19908;-76
2021/07/14 09:06:09;;;;;;;;;;;20.80;93.10;;;;;;5097138;28;19961;-76
2021/07/14 09:08:35;;;;;;;;;;;20.80;93.00;;;;;;5097227;28;19952;-76
2021/07/14 09:11:00;;;;;;;;;;;20.70;93.50;;;;;;5097052;28;19977;-76
2021/07/14 09:13:33;;;;;;;;;;;20.80;93.40;;;;;;5097374;28;19931;-75
2021/07/14 09:15:59;;;;;;;;;;;20.70;93.10;;;;;;5097156;28;19915;-76
2021/07/14 09:18:27;;;;;;;;;;;20.80;93.10;;;;;;5096927;28;20288;-76
2021/07/14 09:20:53;;;;;;;;;;;20.90;93.10;;;;;;5095664;28;19908;-74
2021/07/14 09:23:21;;;;;;;;;;;21.00;92.80;;;;;;5096946;28;19908;-76
2021/07/14 09:25:54;;;;;;;;;;;21.20;92.40;;;;;;5096920;28;20018;-77
2021/07/14 09:28:20;;;;;;;;;;;21.10;92.30;;;;;;5096759;28;19908;-75
2021/07/14 09:30:47;;;;;;;;;;;21.10;92.80;;;;;;5096815;28;19912;-76
2021/07/14 09:33:14;;;;;;;;;;;21.00;93.00;;;;;;5096638;28;19915;-77
2021/07/14 09:35:46;;;;;;;;;;;21.20;92.80;;;;;;5096584;28;19998;-76
2021/07/14 09:38:17;;;;;;;;;;;20.90;93.50;;;;;;5096561;28;19965;-76
2021/07/14 09:40:45;;;;;;;;;;;21.00;92.80;;;;;;5096477;28;20359;-75
2021/07/14 09:43:15;;;;;;;;;;;21.20;92.70;;;;;;5096443;28;19911;-76
2021/07/14 09:45:42;;;;;;;;;;;21.40;92.80;;;;;;5096607;28;19916;-76
2021/07/14 09:48:09;;;;;;;;;;;21.40;92.70;;;;;;5096350;28;19998;-77
2021/07/14 09:50:45;;;;;;;;;;;21.50;92.00;;;;;;5096227;28;19908;-77
2021/07/14 09:53:12;;;;;;;;;;;21.60;91.90;;;;;;5096489;28;19908;-75
2021/07/14 09:55:38;;;;;;;;;;;21.60;91.50;;;;;;5096213;28;20371;-76
2021/07/14 09:58:07;;;;;;;;;;;21.60;91.60;;;;;;5096256;28;19908;-75
2021/07/14 10:00:46;;;;;;;;;;;21.70;91.50;;;;;;5096136;28;19969;-75
2021/07/14 10:03:17;;;;;;;;;;;22.00;91.00;;;;;;5096430;28;19914;-75
2021/07/14 10:05:42;;;;;;;;;;;22.30;90.30;;;;;;5095866;28;19943;-77
2021/07/14 10:08:15;;;;;;;;;;;22.40;90.00;;;;;;5096038;28;20372;-77
2021/07/14 10:10:40;;;;;;;;;;;22.30;90.30;;;;;;5095630;28;19921;-77
2021/07/14 10:13:09;;;;;;;;;;;22.10;90.30;;;;;;5096070;28;19971;-76
2021/07/14 10:15:35;;;;;;;;;;;22.00;90.70;;;;;;5095933;28;19909;-77
2021/07/14 10:18:00;;;;;;;;;;;22.00;90.80;;;;;;5095982;28;19915;-76
2021/07/14 10:20:37;;;;;;;;;;;22.20;91.00;;;;;;5095785;28;19909;-75
2021/07/14 10:23:04;;;;;;;;;;;22.40;90.60;;;;;;5095608;28;20284;-77
2021/07/14 10:25:31;;;;;;;;;;;22.60;90.30;;;;;;5095802;28;19916;-77
2021/07/14 10:27:57;;;;;;;;;;;22.80;89.00;;;;;;5094328;28;20320;-77
2021/07/14 10:30:24;;;;;;;;;;;22.90;88.40;;;;;;5095521;28;19961;-74
2021/07/14 10:32:50;;;;;;;;;;;22.70;89.30;;;;;;5095505;28;19908;-76
2021/07/14 10:35:17;;;;;;;;;;;22.80;89.50;;;;;;5095442;28;19995;-75
2021/07/14 10:37:50;;;;;;;;;;;22.60;88.40;;;;;;5095522;28;19908;-77
2021/07/14 10:40:16;;;;;;;;;;;22.50;89.70;;;;;;5094026;28;20406;-77
2021/07/14 10:42:44;;;;;;;;;;;22.40;90.10;;;;;;5095294;28;19911;-74
2021/07/14 10:45:11;;;;;;;;;;;22.40;90.10;;;;;;5095183;28;20371;-76
2021/07/14 10:47:36;;;;;;;;;;;22.50;90.10;;;;;;5093929;28;20432;-74
2021/07/14 10:50:02;;;;;;;;;;;22.40;90.00;;;;;;5095246;28;19908;-76
2021/07/14 10:52:28;;;;;;;;;;;22.40;90.00;;;;;;5095043;28;20024;-76
2021/07/14 10:54:54;;;;;;;;;;;22.80;88.50;;;;;;5093786;28;19918;-76
2021/07/14 10:57:20;;;;;;;;;;;23.20;87.50;;;;;;5095005;28;19908;-76
2021/07/14 10:59:46;;;;;;;;;;;23.30;87.10;;;;;;5095089;28;20330;-76
2021/07/14 11:02:15;;;;;;;;;;;23.60;85.90;;;;;;5095121;28;19909;-76
2021/07/14 11:04:42;;;;;;;;;;;23.60;84.00;;;;;;5093620;28;19908;-74
2021/07/14 11:07:08;;;;;;;;;;;23.70;85.00;;;;;;5094879;28;19960;-77
2021/07/14 11:09:34;;;;;;;;;;;23.70;84.40;;;;;;5094794;28;19999;-77
2021/07/14 11:12:02;;;;;;;;;;;23.90;84.40;;;;;;5094194;28;20384;-75
2021/07/14 11:14:46;;;;;;;;;;;24.30;83.10;;;;;;5094695;28;20418;-77
2021/07/14 11:17:12;;;;;;;;;;;24.30;82.20;;;;;;5093895;28;19908;-76
2021/07/14 11:19:45;;;;;;;;;;;23.70;84.10;;;;;;5094572;28;19912;-76
2021/07/14 11:22:11;;;;;;;;;;;23.80;83.90;;;;;;5094576;28;19991;-77
2021/07/14 11:24:41;;;;;;;;;;;24.50;82.50;;;;;;5094460;28;19915;-77
2021/07/14 11:27:22;;;;;;;;;;;26.00;77.90;;;;;;5094466;28;19961;-77
2021/07/14 11:29:54;;;;;;;;;;;27.10;72.50;;;;;;5094803;28;20376;-77
2021/07/14 11:32:38;;;;;;;;;;;29.00;66.50;;;;;;5093058;28;20061;-77
2021/07/14 11:35:03;;;;;;;;;;;28.10;68.10;;;;;;5094626;28;19908;-76
2021/07/14 11:37:34;;;;;;;;;;;29.90;62.60;;;;;;5093005;28;20380;-78
2021/07/14 11:40:18;;;;;;;;;;;28.60;62.50;;;;;;5094130;28;20364;-77
2021/07/14 11:42:48;;;;;;;;;;;29.40;60.80;;;;;;5094242;28;19909;-78
2021/07/14 11:45:14;;;;;;;;;;;29.90;59.60;;;;;;5092910;28;19908;-77
2021/07/14 11:47:40;;;;;;;;;;;29.40;58.30;;;;;;5094099;28;19999;-78
2021/07/14 11:50:06;;;;;;;;;;;28.40;61.90;;;;;;5094279;28;20016;-77
2021/07/14 11:52:42;;;;;;;;;;;28.10;63.00;;;;;;5093988;28;19918;-76
2021/07/14 11:55:23;;;;;;;;;;;27.80;64.80;;;;;;5094050;28;20288;-77
2021/07/14 11:57:49;;;;;;;;;;;26.90;65.30;;;;;;5094371;28;19912;-77
2021/07/14 12:00:15;;;;;;;;;;;26.60;68.50;;;;;;5092699;28;19908;-75
2021/07/14 12:02:56;;;;;;;;;;;27.00;67.10;;;;;;5093979;28;19915;-77
2021/07/14 12:05:28;;;;;;;;;;;28.50;63.00;;;;;;5093929;28;19989;-75
2021/07/14 12:08:06;;;;;;;;;;;28.60;61.50;;;;;;5094090;28;20364;-75
2021/07/14 12:10:32;;;;;;;;;;;27.70;62.60;;;;;;5093817;28;19920;-75
2021/07/14 12:12:58;;;;;;;;;;;27.60;64.80;;;;;;5093930;28;19960;-77
2021/07/14 12:15:24;;;;;;;;;;;27.80;63.20;;;;;;5093778;28;19965;-77
2021/07/14 12:17:49;;;;;;;;;;;27.50;63.20;;;;;;5093941;28;19908;-77
2021/07/14 12:20:15;;;;;;;;;;;28.00;62.70;;;;;;5093923;28;19946;-77
2021/07/14 12:22:41;;;;;;;;;;;27.60;62.50;;;;;;5093709;28;19908;-76
2021/07/14 12:25:14;;;;;;;;;;;28.00;63.30;;;;;;5093721;28;19908;-77
2021/07/14 12:27:41;;;;;;;;;;;27.70;62.60;;;;;;5095780;28;19916;-77
2021/07/14 12:30:11;;;;;;;;;;;27.60;63.40;;;;;;5098068;28;20388;-77
2021/07/14 12:32:40;;;;;;;;;;;28.10;62.80;;;;;;5097784;28;20011;-77
2021/07/14 12:35:08;;;;;;;;;;;28.90;61.00;;;;;;5097718;28;19912;-78
2021/07/14 12:37:41;;;;;;;;;;;30.60;56.70;;;;;;5097669;28;19908;-76
2021/07/14 12:40:07;;;;;;;;;;;30.00;56.30;;;;;;5097638;28;19912;-78
2021/07/14 12:42:33;;;;;;;;;;;29.30;58.50;;;;;;5097592;28;19908;-78
2021/07/14 12:44:59;;;;;;;;;;;29.30;57.80;;;;;;5097658;28;19916;-75
2021/07/14 12:47:24;;;;;;;;;;;30.40;55.50;;;;;;5097785;28;20024;-77
2021/07/14 12:49:52;;;;;;;;;;;30.10;54.40;;;;;;5097515;28;19915;-78
2021/07/14 12:52:18;;;;;;;;;;;29.50;56.50;;;;;;5097363;28;19965;-77
2021/07/14 12:54:45;;;;;;;;;;;28.90;58.20;;;;;;5097445;28;19914;-76
2021/07/14 12:57:25;;;;;;;;;;;28.50;59.50;;;;;;5097355;28;19908;-78
2021/07/14 12:59:50;;;;;;;;;;;28.90;59.00;;;;;;5097446;28;19908;-76
2021/07/14 13:02:17;;;;;;;;;;;29.00;57.10;;;;;;5097292;28;19908;-78
2021/07/14 13:04:44;;;;;;;;;;;28.50;58.20;;;;;;5097274;28;19952;-76
2021/07/14 13:07:09;;;;;;;;;;;28.70;59.00;;;;;;5097471;28;20432;-76
2021/07/14 13:09:35;;;;;;;;;;;30.10;57.00;;;;;;5097284;28;19955;-76
2021/07/14 13:12:02;;;;;;;;;;;31.70;52.60;;;;;;5096825;28;20272;-77
2021/07/14 13:14:27;;;;;;;;;;;31.80;51.00;;;;;;5097053;28;20364;-78
2021/07/14 13:16:53;;;;;;;;;;;31.50;51.90;;;;;;5095477;28;19914;-77
2021/07/14 13:19:18;;;;;;;;;;;31.80;52.30;;;;;;5096978;28;20284;-77
2021/07/14 13:21:45;;;;;;;;;;;31.00;52.00;;;;;;5095622;28;19908;-77
2021/07/14 13:24:12;;;;;;;;;;;31.10;52.20;;;;;;5096809;28;19914;-77
2021/07/14 13:26:39;;;;;;;;;;;31.50;51.10;;;;;;5096805;28;20300;-77
2021/07/14 13:29:05;;;;;;;;;;;30.70;52.30;;;;;;5097066;28;19915;-79
2021/07/14 13:31:33;;;;;;;;;;;30.30;53.40;;;;;;5096620;28;20346;-77
2021/07/14 13:34:07;;;;;;;;;;;30.40;53.30;;;;;;5096737;28;19914;-76
2021/07/14 13:36:37;;;;;;;;;;;30.00;53.70;;;;;;5095377;28;19908;-78
2021/07/14 13:39:14;;;;;;;;;;;29.80;53.80;;;;;;5096152;28;20360;-77
2021/07/14 13:41:40;;;;;;;;;;;29.60;54.80;;;;;;5096642;28;19908;-76
2021/07/14 13:44:24;;;;;;;;;;;30.50;53.40;;;;;;5095166;28;20337;-77
2021/07/14 13:46:50;;;;;;;;;;;31.00;51.40;;;;;;5096780;28;20368;-75
2021/07/14 13:49:18;;;;;;;;;;;30.90;50.40;;;;;;5095055;28;20006;-76
2021/07/14 13:51:51;;;;;;;;;;;30.00;52.70;;;;;;5096502;28;19912;-77
2021/07/14 13:54:17;;;;;;;;;;;29.60;53.70;;;;;;5096274;28;20387;-76
2021/07/14 13:56:43;;;;;;;;;;;29.60;54.70;;;;;;5096212;28;19912;-77
2021/07/14 13:59:27;;;;;;;;;;;29.10;55.20;;;;;;5096285;28;19912;-77
2021/07/14 14:01:57;;;;;;;;;;;29.80;54.30;;;;;;5094829;28;19908;-76
2021/07/14 14:04:24;;;;;;;;;;;31.10;51.10;;;;;;5096139;28;19916;-75
2021/07/14 14:06:49;;;;;;;;;;;30.60;51.10;;;;;;5096193;28;20003;-76
2021/07/14 14:09:18;;;;;;;;;;;30.50;51.60;;;;;;5096035;28;19965;-78
2021/07/14 14:11:44;;;;;;;;;;;31.20;51.10;;;;;;5095452;28;19927;-75
2021/07/14 14:14:10;;;;;;;;;;;31.70;50.40;;;;;;5095868;28;19908;-77
2021/07/14 14:16:35;;;;;;;;;;;30.50;50.50;;;;;;5096268;28;19909;-78
2021/07/14 14:19:01;;;;;;;;;;;29.80;52.40;;;;;;5095824;28;19995;-79
2021/07/14 14:21:26;;;;;;;;;;;30.80;51.10;;;;;;5095752;28;20280;-76
2021/07/14 14:23:56;;;;;;;;;;;31.60;49.30;;;;;;5095663;28;20384;-78
2021/07/14 14:26:26;;;;;;;;;;;32.10;48.70;;;;;;5094397;28;20288;-75